createdAt,value
2022-11-24T00:00:02.553Z,1007.2
2022-11-24T00:01:02.392Z,1007.2
2022-11-24T00:02:02.517Z,1007.2
2022-11-24T00:03:02.702Z,1007.2
2022-11-24T00:04:02.519Z,1007.2
2022-11-24T00:05:02.358Z,1007.2
2022-11-24T00:06:02.350Z,1007.2
2022-11-24T00:07:02.365Z,1007.2
2022-11-24T00:08:02.214Z,1007.2
2022-11-24T00:09:02.221Z,1007.3
2022-11-24T00:10:02.027Z,1007.3
2022-11-24T00:11:02.013Z,1007.3
2022-11-24T00:12:01.873Z,1007.3
2022-11-24T00:13:01.917Z,1007.4
2022-11-24T00:14:01.750Z,1007.3
2022-11-24T00:15:01.773Z,1007.3
2022-11-24T00:16:02.696Z,1007.4
2022-11-24T00:17:02.624Z,1007.4
2022-11-24T00:18:02.441Z,1007.4
2022-11-24T00:19:02.377Z,1007.5
2022-11-24T00:20:02.227Z,1007.4
2022-11-24T00:21:02.277Z,1007.4
2022-11-24T00:22:02.097Z,1007.4
2022-11-24T00:23:02.146Z,1007.4
2022-11-24T00:24:02.108Z,1007.4
2022-11-24T00:25:02.024Z,1007.5
2022-11-24T00:26:01.850Z,1007.5
2022-11-24T00:27:01.906Z,1007.5
2022-11-24T00:28:01.710Z,1007.5
2022-11-24T00:29:02.778Z,1007.5
2022-11-24T00:30:02.636Z,1007.5
2022-11-24T00:31:02.912Z,1007.5
2022-11-24T00:32:01.885Z,1007.5
2022-11-24T00:33:01.895Z,1007.5
2022-11-24T00:34:01.742Z,1007.5
2022-11-24T00:35:02.790Z,1007.6
2022-11-24T00:36:01.723Z,1007.6
2022-11-24T00:37:02.706Z,1007.6
2022-11-24T00:38:02.782Z,1007.6
2022-11-24T00:39:02.667Z,1007.7
2022-11-24T00:40:02.627Z,1007.6
2022-11-24T00:41:02.785Z,1007.6
2022-11-24T00:42:01.683Z,1007.7
2022-11-24T00:43:02.711Z,1007.7
2022-11-24T00:44:02.552Z,1007.8
2022-11-24T00:45:14.551Z,1007.7
2022-11-24T00:46:02.838Z,1007.7
2022-11-24T00:47:03.119Z,1007.8
2022-11-24T00:48:01.958Z,1007.7
2022-11-24T00:49:01.888Z,1007.7
2022-11-24T00:50:01.805Z,1007.7
2022-11-24T00:51:02.774Z,1007.7
2022-11-24T00:52:02.773Z,1007.8
2022-11-24T00:53:02.713Z,1007.7
2022-11-24T00:54:02.592Z,1007.7
2022-11-24T00:55:02.617Z,1007.7
2022-11-24T00:56:02.533Z,1007.7
2022-11-24T00:57:02.623Z,1007.7
2022-11-24T00:58:02.520Z,1007.7
2022-11-24T00:59:02.552Z,1007.7
2022-11-24T01:00:02.501Z,1007.7
2022-11-24T01:01:02.760Z,1007.7
2022-11-24T01:02:02.462Z,1007.7
2022-11-24T01:03:02.680Z,1007.7
2022-11-24T01:04:02.656Z,1007.7
2022-11-24T01:05:02.426Z,1007.7
2022-11-24T01:06:02.477Z,1007.6
2022-11-24T01:07:02.420Z,1007.7
2022-11-24T01:08:02.307Z,1007.7
2022-11-24T01:09:02.585Z,1007.7
2022-11-24T01:10:02.399Z,1007.7
2022-11-24T01:11:02.491Z,1007.8
2022-11-24T01:12:02.515Z,1007.8
2022-11-24T01:13:02.393Z,1007.7
2022-11-24T01:14:02.478Z,1007.8
2022-11-24T01:15:02.571Z,1007.8
2022-11-24T01:16:02.510Z,1007.8
2022-11-24T01:17:02.255Z,1007.8
2022-11-24T01:18:02.376Z,1007.8
2022-11-24T01:19:02.314Z,1007.9
2022-11-24T01:20:02.280Z,1007.9
2022-11-24T01:21:10.695Z,1007.9
2022-11-24T01:22:02.533Z,1007.8
2022-11-24T01:23:02.376Z,1007.9
2022-11-24T01:24:02.396Z,1007.9
2022-11-24T01:25:02.472Z,1007.9
2022-11-24T01:26:02.321Z,1007.9
2022-11-24T01:27:02.315Z,1007.9
2022-11-24T01:28:02.271Z,1007.9
2022-11-24T01:29:02.108Z,1007.9
2022-11-24T01:30:02.154Z,1007.9
2022-11-24T01:31:02.267Z,1007.9
2022-11-24T01:32:01.947Z,1007.9
2022-11-24T01:33:02.010Z,1007.9
2022-11-24T01:34:01.824Z,1007.9
2022-11-24T01:35:01.857Z,1007.9
2022-11-24T01:36:01.720Z,1007.9
2022-11-24T01:37:02.757Z,1007.9
2022-11-24T01:38:02.615Z,1007.9
2022-11-24T01:39:02.679Z,1007.9
2022-11-24T01:40:02.513Z,1007.9
2022-11-24T01:41:02.567Z,1007.9
2022-11-24T01:42:02.444Z,1007.9
2022-11-24T01:43:02.482Z,1007.9
2022-11-24T01:44:02.453Z,1007.9
2022-11-24T01:45:02.341Z,1007.9
2022-11-24T01:46:02.580Z,1007.9
2022-11-24T01:47:02.286Z,1007.9
2022-11-24T01:48:02.483Z,1007.9
2022-11-24T01:49:02.331Z,1007.9
2022-11-24T01:50:02.359Z,1007.9
2022-11-24T01:51:02.174Z,1007.9
2022-11-24T01:52:02.232Z,1008
2022-11-24T01:53:02.050Z,1008
2022-11-24T01:54:02.115Z,1007.9
2022-11-24T01:55:01.879Z,1008
2022-11-24T01:56:01.904Z,1008
2022-11-24T01:57:01.737Z,1007.9
2022-11-24T01:58:01.815Z,1008
2022-11-24T01:59:02.750Z,1008
2022-11-24T02:00:02.674Z,1008
2022-11-24T02:01:02.919Z,1008
2022-11-24T02:02:01.894Z,1008
2022-11-24T02:03:03.168Z,1008
2022-11-24T02:04:01.890Z,1008
2022-11-24T02:05:01.940Z,1007.9
2022-11-24T02:06:01.747Z,1008
2022-11-24T02:07:01.779Z,1008
2022-11-24T02:08:02.675Z,1008
2022-11-24T02:09:02.611Z,1008
2022-11-24T02:10:02.697Z,1007.9
2022-11-24T02:11:02.590Z,1007.9
2022-11-24T02:12:02.625Z,1008
2022-11-24T02:13:02.469Z,1008
2022-11-24T02:14:02.506Z,1008
2022-11-24T02:15:02.392Z,1008.1
2022-11-24T02:16:02.631Z,1008
2022-11-24T02:17:01.784Z,1008
2022-11-24T02:18:01.808Z,1008
2022-11-24T02:19:02.749Z,1008
2022-11-24T02:20:02.596Z,1008
2022-11-24T02:21:02.672Z,1008
2022-11-24T02:22:02.508Z,1008
2022-11-24T02:23:02.528Z,1008
2022-11-24T02:24:02.403Z,1008
2022-11-24T02:25:02.454Z,1008
2022-11-24T02:26:02.375Z,1008
2022-11-24T02:27:02.280Z,1008
2022-11-24T02:28:02.319Z,1008
2022-11-24T02:29:02.265Z,1008
2022-11-24T02:30:02.104Z,1008
2022-11-24T02:31:02.224Z,1008
2022-11-24T02:32:02.049Z,1008
2022-11-24T02:33:02.106Z,1008
2022-11-24T02:34:01.926Z,1008.1
2022-11-24T02:35:02.035Z,1008.1
2022-11-24T02:36:01.888Z,1008.1
2022-11-24T02:37:01.926Z,1008
2022-11-24T02:38:01.764Z,1008
2022-11-24T02:39:01.776Z,1008
2022-11-24T02:40:02.726Z,1008
2022-11-24T02:41:02.640Z,1008.1
2022-11-24T02:42:02.772Z,1008.1
2022-11-24T02:43:02.648Z,1008
2022-11-24T02:44:02.723Z,1008
2022-11-24T02:45:02.578Z,1008
2022-11-24T02:46:02.988Z,1008
2022-11-24T02:47:02.532Z,1008
2022-11-24T02:48:02.595Z,1008
2022-11-24T02:49:02.477Z,1008
2022-11-24T02:50:02.505Z,1008
2022-11-24T02:51:02.435Z,1008
2022-11-24T02:52:02.272Z,1008.1
2022-11-24T02:53:02.336Z,1008.1
2022-11-24T02:54:02.264Z,1008.1
2022-11-24T02:55:02.097Z,1008.1
2022-11-24T02:56:02.127Z,1008.1
2022-11-24T02:57:01.973Z,1008.1
2022-11-24T02:58:02.004Z,1008.1
2022-11-24T02:59:01.808Z,1008
2022-11-24T03:00:01.822Z,1008
2022-11-24T03:01:01.623Z,1008
2022-11-24T03:02:02.529Z,1008.1
2022-11-24T03:03:02.569Z,1008
2022-11-24T03:04:02.456Z,1008
2022-11-24T03:05:02.311Z,1008.1
2022-11-24T03:06:02.380Z,1008
2022-11-24T03:07:02.323Z,1008
2022-11-24T03:08:02.151Z,1008.1
2022-11-24T03:09:02.184Z,1008
2022-11-24T03:10:02.045Z,1008
2022-11-24T03:11:02.044Z,1008
2022-11-24T03:12:01.887Z,1008
2022-11-24T03:13:01.921Z,1008
2022-11-24T03:14:01.759Z,1008
2022-11-24T03:15:02.785Z,1008
2022-11-24T03:16:02.813Z,1008
2022-11-24T03:17:01.691Z,1008
2022-11-24T03:18:02.735Z,1008
2022-11-24T03:19:02.643Z,1008
2022-11-24T03:20:05.818Z,1008
2022-11-24T03:21:02.529Z,1008
2022-11-24T03:22:02.652Z,1008
2022-11-24T03:23:02.557Z,1008
2022-11-24T03:24:02.628Z,1008.1
2022-11-24T03:25:02.483Z,1008.1
2022-11-24T03:26:02.503Z,1008.1
2022-11-24T03:27:02.365Z,1008.1
2022-11-24T03:28:02.403Z,1008
2022-11-24T03:29:02.404Z,1008.1
2022-11-24T03:30:02.321Z,1008
2022-11-24T03:31:02.521Z,1008
2022-11-24T03:32:02.113Z,1008.1
2022-11-24T03:33:02.181Z,1008.1
2022-11-24T03:34:02.011Z,1008.1
2022-11-24T03:35:02.047Z,1008.2
2022-11-24T03:36:01.922Z,1008.2
2022-11-24T03:37:01.938Z,1008.2
2022-11-24T03:38:01.782Z,1008.1
2022-11-24T03:39:01.795Z,1008.2
2022-11-24T03:40:02.752Z,1008.2
2022-11-24T03:41:02.664Z,1008.2
2022-11-24T03:42:02.774Z,1008.2
2022-11-24T03:43:02.627Z,1008.1
2022-11-24T03:44:02.722Z,1008.2
2022-11-24T03:45:46.738Z,1008.2
2022-11-24T03:46:02.669Z,1008.2
2022-11-24T03:47:02.694Z,1008.2
2022-11-24T03:48:02.606Z,1008.3
2022-11-24T03:49:02.698Z,1008.2
2022-11-24T03:50:02.562Z,1008.2
2022-11-24T03:51:02.586Z,1008.2
2022-11-24T03:52:08.772Z,1008.3
2022-11-24T03:53:02.486Z,1008.3
2022-11-24T03:54:02.544Z,1008.2
2022-11-24T03:55:02.399Z,1008.3
2022-11-24T03:56:02.501Z,1008.3
2022-11-24T03:57:02.342Z,1008.3
2022-11-24T03:58:02.168Z,1008.3
2022-11-24T03:59:02.181Z,1008.3
2022-11-24T04:00:02.089Z,1008.3
2022-11-24T04:01:02.099Z,1008.3
2022-11-24T04:02:02.087Z,1008.3
2022-11-24T04:03:02.264Z,1008.3
2022-11-24T04:04:02.008Z,1008.4
2022-11-24T04:05:02.042Z,1008.4
2022-11-24T04:06:01.827Z,1008.4
2022-11-24T04:07:01.848Z,1008.4
2022-11-24T04:08:01.672Z,1008.4
2022-11-24T04:09:02.766Z,1008.4
2022-11-24T04:10:02.629Z,1008.4
2022-11-24T04:11:02.691Z,1008.4
2022-11-24T04:12:02.534Z,1008.4
2022-11-24T04:13:02.685Z,1008.4
2022-11-24T04:14:02.560Z,1008.4
2022-11-24T04:15:02.620Z,1008.4
2022-11-24T04:16:02.624Z,1008.4
2022-11-24T04:17:02.647Z,1008.4
2022-11-24T04:18:02.770Z,1008.4
2022-11-24T04:19:02.638Z,1008.4
2022-11-24T04:20:02.675Z,1008.4
2022-11-24T04:21:02.614Z,1008.4
2022-11-24T04:22:02.563Z,1008.4
2022-11-24T04:23:02.444Z,1008.4
2022-11-24T04:24:02.457Z,1008.4
2022-11-24T04:25:02.459Z,1008.4
2022-11-24T04:26:02.314Z,1008.5
2022-11-24T04:27:02.364Z,1008.5
2022-11-24T04:28:02.249Z,1008.5
2022-11-24T04:29:02.119Z,1008.5
2022-11-24T04:30:02.188Z,1008.5
2022-11-24T04:31:02.106Z,1008.5
2022-11-24T04:32:01.976Z,1008.5
2022-11-24T04:33:02.042Z,1008.6
2022-11-24T04:34:01.864Z,1008.6
2022-11-24T04:35:01.894Z,1008.6
2022-11-24T04:36:01.699Z,1008.6
2022-11-24T04:37:02.792Z,1008.6
2022-11-24T04:38:02.714Z,1008.6
2022-11-24T04:39:29.052Z,1008.6
2022-11-24T04:40:01.807Z,1008.6
2022-11-24T04:41:01.862Z,1008.6
2022-11-24T04:42:01.694Z,1008.5
2022-11-24T04:43:02.746Z,1008.6
2022-11-24T04:44:02.660Z,1008.5
2022-11-24T04:45:02.600Z,1008.6
2022-11-24T04:46:02.564Z,1008.5
2022-11-24T04:47:02.687Z,1008.5
2022-11-24T04:48:02.603Z,1008.5
2022-11-24T04:49:02.585Z,1008.5
2022-11-24T04:50:02.731Z,1008.5
2022-11-24T04:51:02.635Z,1008.5
2022-11-24T04:52:02.674Z,1008.5
2022-11-24T04:53:02.554Z,1008.6
2022-11-24T04:54:02.624Z,1008.5
2022-11-24T04:55:02.437Z,1008.6
2022-11-24T04:56:02.519Z,1008.6
2022-11-24T04:57:02.437Z,1008.6
2022-11-24T04:58:02.279Z,1008.6
2022-11-24T04:59:09.001Z,1008.6
2022-11-24T05:00:01.776Z,1008.6
2022-11-24T05:01:01.858Z,1008.6
2022-11-24T05:02:02.773Z,1008.6
2022-11-24T05:03:02.486Z,1008.7
2022-11-24T05:04:02.850Z,1008.7
2022-11-24T05:05:02.667Z,1008.7
2022-11-24T05:06:02.733Z,1008.7
2022-11-24T05:07:02.647Z,1008.7
2022-11-24T05:08:02.753Z,1008.7
2022-11-24T05:09:02.565Z,1008.7
2022-11-24T05:10:02.597Z,1008.7
2022-11-24T05:11:02.475Z,1008.7
2022-11-24T05:12:02.303Z,1008.7
2022-11-24T05:13:02.353Z,1008.8
2022-11-24T05:14:02.384Z,1008.8
2022-11-24T05:15:02.188Z,1008.8
2022-11-24T05:16:02.510Z,1008.8
2022-11-24T05:17:02.363Z,1008.8
2022-11-24T05:18:02.217Z,1008.8
2022-11-24T05:19:02.157Z,1008.8
2022-11-24T05:20:01.922Z,1008.9
2022-11-24T05:21:01.943Z,1008.8
2022-11-24T05:22:01.849Z,1008.9
2022-11-24T05:23:01.767Z,1008.9
2022-11-24T05:24:02.740Z,1008.9
2022-11-24T05:25:02.710Z,1008.9
2022-11-24T05:26:02.825Z,1008.9
2022-11-24T05:27:02.603Z,1008.9
2022-11-24T05:28:02.655Z,1008.9
2022-11-24T05:29:02.627Z,1008.9
2022-11-24T05:30:02.722Z,1009
2022-11-24T05:31:02.760Z,1008.9
2022-11-24T05:32:01.721Z,1009
2022-11-24T05:33:02.836Z,1008.9
2022-11-24T05:34:02.737Z,1009
2022-11-24T05:35:02.693Z,1009
2022-11-24T05:36:02.592Z,1009
2022-11-24T05:37:02.688Z,1008.9
2022-11-24T05:38:02.607Z,1008.9
2022-11-24T05:39:02.490Z,1008.9
2022-11-24T05:40:02.487Z,1009
2022-11-24T05:41:02.405Z,1008.9
2022-11-24T05:42:02.494Z,1008.9
2022-11-24T05:43:02.443Z,1009
2022-11-24T05:44:02.305Z,1009
2022-11-24T05:45:02.441Z,1009
2022-11-24T05:46:02.440Z,1009
2022-11-24T05:47:02.438Z,1009
2022-11-24T05:48:02.282Z,1009
2022-11-24T05:49:02.151Z,1009.1
2022-11-24T05:50:02.286Z,1009
2022-11-24T05:51:09.767Z,1009.1
2022-11-24T05:52:02.470Z,1009
2022-11-24T05:53:02.826Z,1009
2022-11-24T05:54:02.603Z,1009.1
2022-11-24T05:55:02.674Z,1009
2022-11-24T05:56:02.536Z,1009.1
2022-11-24T05:57:02.630Z,1009.1
2022-11-24T05:58:02.461Z,1009
2022-11-24T05:59:10.302Z,1009
2022-11-24T06:00:02.013Z,1009.1
2022-11-24T06:01:02.023Z,1009.1
2022-11-24T06:02:02.193Z,1009.1
2022-11-24T06:03:02.533Z,1009.1
2022-11-24T06:04:02.395Z,1009.1
2022-11-24T06:05:02.252Z,1009.1
2022-11-24T06:06:02.331Z,1009.1
2022-11-24T06:07:02.249Z,1009.2
2022-11-24T06:08:02.088Z,1009.2
2022-11-24T06:09:02.124Z,1009.2
2022-11-24T06:10:02.035Z,1009.2
2022-11-24T06:11:02.026Z,1009.2
2022-11-24T06:12:01.847Z,1009.2
2022-11-24T06:13:02.055Z,1009.3
2022-11-24T06:14:02.523Z,1009.2
2022-11-24T06:15:02.648Z,1009.3
2022-11-24T06:16:02.787Z,1009.3
2022-11-24T06:17:02.712Z,1009.2
2022-11-24T06:18:02.754Z,1009.3
2022-11-24T06:19:02.610Z,1009.4
2022-11-24T06:20:02.676Z,1009.3
2022-11-24T06:21:12.467Z,1009.4
2022-11-24T06:22:02.187Z,1009.4
2022-11-24T06:23:02.220Z,1009.4
2022-11-24T06:24:02.086Z,1009.4
2022-11-24T06:25:02.086Z,1009.5
2022-11-24T06:26:01.913Z,1009.5
2022-11-24T06:27:01.906Z,1009.5
2022-11-24T06:28:01.745Z,1009.5
2022-11-24T06:29:01.809Z,1009.5
2022-11-24T06:30:02.769Z,1009.5
2022-11-24T06:31:02.625Z,1009.5
2022-11-24T06:32:02.735Z,1009.5
2022-11-24T06:33:02.523Z,1009.5
2022-11-24T06:34:02.414Z,1009.5
2022-11-24T06:35:02.462Z,1009.4
2022-11-24T06:36:02.400Z,1009.5
2022-11-24T06:37:02.231Z,1009.5
2022-11-24T06:38:02.305Z,1009.5
2022-11-24T06:39:02.243Z,1009.6
2022-11-24T06:40:02.179Z,1009.5
2022-11-24T06:41:02.101Z,1009.5
2022-11-24T06:42:01.942Z,1009.6
2022-11-24T06:43:02.120Z,1009.6
2022-11-24T06:44:02.031Z,1009.5
2022-11-24T06:45:09.249Z,1009.6
2022-11-24T06:46:02.639Z,1009.6
2022-11-24T06:47:02.627Z,1009.6
2022-11-24T06:48:02.741Z,1009.5
2022-11-24T06:49:02.713Z,1009.6
2022-11-24T06:50:02.790Z,1009.6
2022-11-24T06:51:02.647Z,1009.5
2022-11-24T06:52:02.415Z,1009.5
2022-11-24T06:53:02.411Z,1009.6
2022-11-24T06:54:02.284Z,1009.5
2022-11-24T06:55:02.360Z,1009.5
2022-11-24T06:56:02.326Z,1009.6
2022-11-24T06:57:02.220Z,1009.6
2022-11-24T06:58:02.204Z,1009.7
2022-11-24T06:59:02.088Z,1009.7
2022-11-24T07:00:02.132Z,1009.7
2022-11-24T07:01:02.234Z,1009.7
2022-11-24T07:02:01.998Z,1009.7
2022-11-24T07:03:02.203Z,1009.7
2022-11-24T07:04:01.895Z,1009.7
2022-11-24T07:05:01.934Z,1009.8
2022-11-24T07:06:01.757Z,1009.7
2022-11-24T07:07:01.804Z,1009.7
2022-11-24T07:08:02.735Z,1009.8
2022-11-24T07:09:02.671Z,1009.7
2022-11-24T07:10:02.818Z,1009.7
2022-11-24T07:11:02.645Z,1009.8
2022-11-24T07:12:01.774Z,1009.8
2022-11-24T07:13:02.737Z,1009.7
2022-11-24T07:14:02.569Z,1009.8
2022-11-24T07:15:02.625Z,1009.7
2022-11-24T07:16:02.619Z,1009.8
2022-11-24T07:17:02.730Z,1009.8
2022-11-24T07:18:02.649Z,1009.8
2022-11-24T07:19:02.567Z,1009.8
2022-11-24T07:20:02.461Z,1009.8
2022-11-24T07:21:02.509Z,1009.9
2022-11-24T07:22:02.385Z,1009.8
2022-11-24T07:23:02.423Z,1009.8
2022-11-24T07:24:02.362Z,1009.8
2022-11-24T07:25:02.290Z,1009.8
2022-11-24T07:26:07.530Z,1009.9
2022-11-24T07:27:02.336Z,1009.9
2022-11-24T07:28:02.171Z,1009.9
2022-11-24T07:29:02.216Z,1009.9
2022-11-24T07:30:02.056Z,1009.9
2022-11-24T07:31:02.100Z,1009.8
2022-11-24T07:32:06.392Z,1009.9
2022-11-24T07:33:02.155Z,1009.9
2022-11-24T07:34:02.198Z,1009.9
2022-11-24T07:35:02.025Z,1009.9
2022-11-24T07:36:02.073Z,1009.9
2022-11-24T07:37:01.911Z,1009.9
2022-11-24T07:38:01.883Z,1009.9
2022-11-24T07:39:01.790Z,1009.9
2022-11-24T07:40:01.828Z,1009.9
2022-11-24T07:41:02.773Z,1010
2022-11-24T07:42:01.704Z,1009.9
2022-11-24T07:43:02.773Z,1010
2022-11-24T07:44:01.679Z,1010
2022-11-24T07:45:02.733Z,1010
2022-11-24T07:46:02.959Z,1010
2022-11-24T07:47:02.615Z,1010
2022-11-24T07:48:02.741Z,1009.9
2022-11-24T07:49:02.624Z,1010
2022-11-24T07:50:02.676Z,1010
2022-11-24T07:51:02.530Z,1010
2022-11-24T07:52:02.634Z,1010
2022-11-24T07:53:02.505Z,1010
2022-11-24T07:54:02.612Z,1010
2022-11-24T07:55:02.481Z,1010
2022-11-24T07:56:02.472Z,1010
2022-11-24T07:57:02.403Z,1010
2022-11-24T07:58:02.245Z,1010
2022-11-24T07:59:02.247Z,1010
2022-11-24T08:00:02.228Z,1010
2022-11-24T08:01:02.117Z,1010
2022-11-24T08:02:02.196Z,1010
2022-11-24T08:03:02.025Z,1010.1
2022-11-24T08:04:02.051Z,1010.1
2022-11-24T08:05:01.889Z,1010.1
2022-11-24T08:06:36.165Z,1010.1
2022-11-24T08:07:02.311Z,1010.1
2022-11-24T08:08:02.368Z,1010.1
2022-11-24T08:09:02.319Z,1010.1
2022-11-24T08:10:02.148Z,1010.1
2022-11-24T08:11:02.236Z,1010.2
2022-11-24T08:12:02.298Z,1010.2
2022-11-24T08:13:01.998Z,1010.2
2022-11-24T08:14:02.051Z,1010.2
2022-11-24T08:15:11.443Z,1010.2
2022-11-24T08:16:02.272Z,1010.3
2022-11-24T08:17:02.181Z,1010.2
2022-11-24T08:18:01.918Z,1010.2
2022-11-24T08:19:01.948Z,1010.2
2022-11-24T08:20:01.792Z,1010.2
2022-11-24T08:21:01.821Z,1010.2
2022-11-24T08:22:02.800Z,1010.2
2022-11-24T08:23:02.589Z,1010.3
2022-11-24T08:24:02.610Z,1010.2
2022-11-24T08:25:02.549Z,1010.2
2022-11-24T08:26:02.581Z,1010.2
2022-11-24T08:27:02.416Z,1010.3
2022-11-24T08:28:02.407Z,1010.3
2022-11-24T08:29:02.484Z,1010.3
2022-11-24T08:30:02.304Z,1010.3
2022-11-24T08:31:02.361Z,1010.3
2022-11-24T08:32:02.683Z,1010.3
2022-11-24T08:33:02.517Z,1010.3
2022-11-24T08:34:02.582Z,1010.4
2022-11-24T08:35:14.933Z,1010.3
2022-11-24T08:36:02.660Z,1010.4
2022-11-24T08:37:02.769Z,1010.4
2022-11-24T08:38:05.278Z,1010.4
2022-11-24T08:39:02.023Z,1010.4
2022-11-24T08:40:02.049Z,1010.4
2022-11-24T08:41:01.876Z,1010.4
2022-11-24T08:42:01.910Z,1010.4
2022-11-24T08:43:01.731Z,1010.4
2022-11-24T08:44:02.772Z,1010.5
2022-11-24T08:45:23.883Z,1010.4
2022-11-24T08:46:02.764Z,1010.5
2022-11-24T08:47:02.443Z,1010.5
2022-11-24T08:48:02.394Z,1010.5
2022-11-24T08:49:02.259Z,1010.5
2022-11-24T08:50:02.323Z,1010.5
2022-11-24T08:51:02.257Z,1010.5
2022-11-24T08:52:02.080Z,1010.5
2022-11-24T08:53:02.082Z,1010.5
2022-11-24T08:54:01.965Z,1010.5
2022-11-24T08:55:02.001Z,1010.5
2022-11-24T08:56:01.791Z,1010.6
2022-11-24T08:57:01.719Z,1010.6
2022-11-24T08:58:02.677Z,1010.5
2022-11-24T08:59:02.760Z,1010.6
2022-11-24T09:00:02.646Z,1010.6
2022-11-24T09:01:02.785Z,1010.6
2022-11-24T09:02:01.945Z,1010.6
2022-11-24T09:03:01.765Z,1010.6
2022-11-24T09:04:02.820Z,1010.6
2022-11-24T09:05:02.567Z,1010.6
2022-11-24T09:06:02.687Z,1010.6
2022-11-24T09:07:02.508Z,1010.6
2022-11-24T09:08:02.459Z,1010.6
2022-11-24T09:09:02.388Z,1010.6
2022-11-24T09:10:02.228Z,1010.6
2022-11-24T09:11:02.280Z,1010.6
2022-11-24T09:12:02.135Z,1010.6
2022-11-24T09:13:02.166Z,1010.6
2022-11-24T09:14:02.012Z,1010.6
2022-11-24T09:15:02.015Z,1010.5
2022-11-24T09:16:01.820Z,1010.5
2022-11-24T09:17:01.907Z,1010.5
2022-11-24T09:18:03.097Z,1010.6
2022-11-24T09:19:01.800Z,1010.6
2022-11-24T09:20:01.785Z,1010.6
2022-11-24T09:21:02.773Z,1010.6
2022-11-24T09:22:02.646Z,1010.6
2022-11-24T09:23:02.641Z,1010.6
2022-11-24T09:24:02.581Z,1010.5
2022-11-24T09:25:02.635Z,1010.6
2022-11-24T09:26:02.466Z,1010.6
2022-11-24T09:27:02.465Z,1010.6
2022-11-24T09:28:02.431Z,1010.7
2022-11-24T09:29:02.283Z,1010.6
2022-11-24T09:30:02.309Z,1010.6
2022-11-24T09:31:02.466Z,1010.7
2022-11-24T09:32:07.503Z,1010.6
2022-11-24T09:33:02.231Z,1010.6
2022-11-24T09:34:02.281Z,1010.6
2022-11-24T09:35:02.077Z,1010.6
2022-11-24T09:36:02.111Z,1010.6
2022-11-24T09:37:01.969Z,1010.6
2022-11-24T09:38:01.993Z,1010.6
2022-11-24T09:39:01.827Z,1010.7
2022-11-24T09:40:01.976Z,1010.6
2022-11-24T09:41:01.893Z,1010.6
2022-11-24T09:42:01.877Z,1010.6
2022-11-24T09:43:01.768Z,1010.6
2022-11-24T09:44:01.816Z,1010.6
2022-11-24T09:45:02.775Z,1010.7
2022-11-24T09:46:07.321Z,1010.7
2022-11-24T09:47:02.393Z,1010.7
2022-11-24T09:48:02.242Z,1010.7
2022-11-24T09:49:02.051Z,1010.6
2022-11-24T09:50:02.075Z,1010.7
2022-11-24T09:51:01.965Z,1010.7
2022-11-24T09:52:01.956Z,1010.7
2022-11-24T09:53:01.772Z,1010.7
2022-11-24T09:54:01.818Z,1010.7
2022-11-24T09:55:02.770Z,1010.6
2022-11-24T09:56:02.699Z,1010.7
2022-11-24T09:57:02.718Z,1010.6
2022-11-24T09:58:02.627Z,1010.6
2022-11-24T09:59:02.684Z,1010.7
2022-11-24T10:00:02.532Z,1010.6
2022-11-24T10:01:02.814Z,1010.7
2022-11-24T10:02:03.105Z,1010.7
2022-11-24T10:03:01.956Z,1010.6
2022-11-24T10:04:07.200Z,1010.6
2022-11-24T10:05:02.047Z,1010.6
2022-11-24T10:06:01.884Z,1010.6
2022-11-24T10:07:01.785Z,1010.6
2022-11-24T10:08:01.765Z,1010.6
2022-11-24T10:09:02.702Z,1010.6
2022-11-24T10:10:02.589Z,1010.6
2022-11-24T10:11:02.645Z,1010.6
2022-11-24T10:12:02.586Z,1010.7
2022-11-24T10:13:02.587Z,1010.7
2022-11-24T10:14:02.434Z,1010.7
2022-11-24T10:15:02.544Z,1010.7
2022-11-24T10:16:02.576Z,1010.7
2022-11-24T10:17:02.367Z,1010.6
2022-11-24T10:18:02.479Z,1010.7
2022-11-24T10:19:02.329Z,1010.6
2022-11-24T10:20:02.154Z,1010.7
2022-11-24T10:21:02.214Z,1010.7
2022-11-24T10:22:02.056Z,1010.7
2022-11-24T10:23:02.072Z,1010.6
2022-11-24T10:24:01.956Z,1010.7
2022-11-24T10:25:01.985Z,1010.7
2022-11-24T10:26:01.846Z,1010.7
2022-11-24T10:27:01.894Z,1010.7
2022-11-24T10:28:01.759Z,1010.7
2022-11-24T10:29:01.810Z,1010.7
2022-11-24T10:30:02.751Z,1010.6
2022-11-24T10:31:02.813Z,1010.7
2022-11-24T10:32:01.701Z,1010.6
2022-11-24T10:33:01.832Z,1010.6
2022-11-24T10:34:01.704Z,1010.7
2022-11-24T10:35:02.727Z,1010.6
2022-11-24T10:36:02.690Z,1010.6
2022-11-24T10:37:02.524Z,1010.6
2022-11-24T10:38:02.481Z,1010.7
2022-11-24T10:39:02.558Z,1010.7
2022-11-24T10:40:02.355Z,1010.7
2022-11-24T10:41:02.400Z,1010.6
2022-11-24T10:42:02.382Z,1010.6
2022-11-24T10:43:02.191Z,1010.7
2022-11-24T10:44:02.207Z,1010.7
2022-11-24T10:45:02.055Z,1010.7
2022-11-24T10:46:02.337Z,1010.7
2022-11-24T10:47:01.988Z,1010.7
2022-11-24T10:48:02.021Z,1010.8
2022-11-24T10:49:01.888Z,1010.7
2022-11-24T10:50:01.918Z,1010.7
2022-11-24T10:51:01.684Z,1010.7
2022-11-24T10:52:02.732Z,1010.8
2022-11-24T10:53:03.306Z,1010.8
2022-11-24T10:54:02.037Z,1010.7
2022-11-24T10:55:02.059Z,1010.8
2022-11-24T10:56:01.876Z,1010.7
2022-11-24T10:57:01.875Z,1010.7
2022-11-24T10:58:01.714Z,1010.7
2022-11-24T10:59:02.764Z,1010.8
2022-11-24T11:00:02.670Z,1010.7
2022-11-24T11:01:02.143Z,1010.8
2022-11-24T11:02:03.061Z,1010.7
2022-11-24T11:03:02.013Z,1010.8
2022-11-24T11:04:01.972Z,1010.7
2022-11-24T11:05:01.757Z,1010.8
2022-11-24T11:06:02.794Z,1010.7
2022-11-24T11:07:02.626Z,1010.7
2022-11-24T11:08:06.198Z,1010.7
2022-11-24T11:09:01.949Z,1010.7
2022-11-24T11:10:01.980Z,1010.8
2022-11-24T11:11:01.812Z,1010.8
2022-11-24T11:12:44.574Z,1010.8
2022-11-24T11:13:01.761Z,1010.8
2022-11-24T11:14:05.242Z,1010.8
2022-11-24T11:15:01.950Z,1010.8
2022-11-24T11:16:02.167Z,1010.8
2022-11-24T11:17:01.945Z,1010.7
2022-11-24T11:18:01.974Z,1010.8
2022-11-24T11:19:01.742Z,1010.7
2022-11-24T11:20:03.638Z,1010.7
2022-11-24T11:21:02.669Z,1010.8
2022-11-24T11:22:02.662Z,1010.7
2022-11-24T11:23:02.516Z,1010.8
2022-11-24T11:24:02.568Z,1010.8
2022-11-24T11:25:02.386Z,1010.7
2022-11-24T11:26:02.426Z,1010.7
2022-11-24T11:27:02.399Z,1010.7
2022-11-24T11:28:17.902Z,1010.8
2022-11-24T11:31:19.567Z,1010.8
2022-11-24T11:31:22.865Z,1010.8
2022-11-24T11:34:06.097Z,1010.8
2022-11-24T11:34:18.357Z,1010.8
2022-11-24T11:35:02.670Z,1010.8
2022-11-24T11:36:02.549Z,1010.8
2022-11-24T11:37:02.675Z,1010.8
2022-11-24T11:38:02.516Z,1010.8
2022-11-24T11:39:02.568Z,1010.8
2022-11-24T11:40:02.442Z,1010.9
2022-11-24T11:41:02.477Z,1010.8
2022-11-24T11:42:02.507Z,1010.8
2022-11-24T11:43:04.205Z,1010.9
2022-11-24T11:44:01.916Z,1010.8
2022-11-24T11:45:01.928Z,1010.8
2022-11-24T11:46:02.488Z,1010.9
2022-11-24T11:47:02.079Z,1010.9
2022-11-24T11:48:01.921Z,1010.8
2022-11-24T11:49:01.784Z,1010.9
2022-11-24T11:50:01.803Z,1010.9
2022-11-24T11:51:24.837Z,1010.8
2022-11-24T11:52:02.601Z,1010.8
2022-11-24T11:53:02.694Z,1010.8
2022-11-24T11:54:02.815Z,1010.9
2022-11-24T11:55:02.691Z,1010.9
2022-11-24T11:56:02.554Z,1010.8
2022-11-24T11:57:02.704Z,1010.8
2022-11-24T11:58:02.609Z,1010.8
2022-11-24T11:59:02.717Z,1010.9
2022-11-24T12:00:02.680Z,1010.9
2022-11-24T12:01:02.729Z,1010.9
2022-11-24T12:02:02.441Z,1010.9
2022-11-24T12:03:03.060Z,1010.9
2022-11-24T12:04:02.446Z,1010.9
2022-11-24T12:05:02.227Z,1010.8
2022-11-24T12:06:02.265Z,1010.8
2022-11-24T12:07:02.083Z,1010.9
2022-11-24T12:08:16.083Z,1010.8
2022-11-24T12:09:21.615Z,1010.9
2022-11-24T12:10:02.356Z,1010.9
2022-11-24T12:11:02.364Z,1010.8
2022-11-24T12:12:02.333Z,1010.8
2022-11-24T12:13:02.152Z,1010.9
2022-11-24T12:14:02.173Z,1010.9
2022-11-24T12:15:11.377Z,1010.9
2022-11-24T12:16:02.241Z,1010.9
2022-11-24T12:17:02.037Z,1010.9
2022-11-24T12:18:01.876Z,1010.8
2022-11-24T12:19:01.902Z,1010.9
2022-11-24T12:20:01.853Z,1010.9
2022-11-24T12:21:01.722Z,1010.9
2022-11-24T12:22:02.755Z,1010.8
2022-11-24T12:23:02.625Z,1010.8
2022-11-24T12:24:02.715Z,1010.8
2022-11-24T12:25:02.941Z,1010.9
2022-11-24T12:26:01.736Z,1010.9
2022-11-24T12:27:02.733Z,1010.8
2022-11-24T12:28:02.581Z,1010.8
2022-11-24T12:29:02.729Z,1010.9
2022-11-24T12:30:02.653Z,1010.9
2022-11-24T12:31:02.885Z,1010.9
2022-11-24T12:32:02.644Z,1011
2022-11-24T12:33:02.674Z,1010.9
2022-11-24T12:34:02.632Z,1010.9
2022-11-24T12:35:02.735Z,1010.9
2022-11-24T12:36:02.565Z,1010.9
2022-11-24T12:37:02.637Z,1010.9